sensor_id;sensor_type;location;lat;lon;timestamp;pressure;altitude;pressure_sealevel;temperature;humidity
11345;BME280;5727;42.600;23.028;2023-04-07T00:01:56;93398.69;;;3.67;78.82
11345;BME280;5727;42.600;23.028;2023-04-07T00:04:22;93408.78;;;3.55;78.51
11345;BME280;5727;42.600;23.028;2023-04-07T00:06:49;93396.59;;;3.56;79.93
11345;BME280;5727;42.600;23.028;2023-04-07T00:09:16;93403.03;;;3.58;80.73
11345;BME280;5727;42.600;23.028;2023-04-07T00:11:43;93407.72;;;3.56;80.43
11345;BME280;5727;42.600;23.028;2023-04-07T00:14:09;93402.19;;;3.49;80.57
11345;BME280;5727;42.600;23.028;2023-04-07T00:16:36;93394.31;;;3.41;80.53
11345;BME280;5727;42.600;23.028;2023-04-07T00:19:04;93397.56;;;3.46;81.23
11345;BME280;5727;42.600;23.028;2023-04-07T00:21:31;93390.47;;;3.52;82.78
11345;BME280;5727;42.600;23.028;2023-04-07T00:23:57;93394.78;;;3.56;83.44
11345;BME280;5727;42.600;23.028;2023-04-07T00:26:24;93393.16;;;3.60;83.79
11345;BME280;5727;42.600;23.028;2023-04-07T00:28:55;93392.56;;;3.63;83.58
11345;BME280;5727;42.600;23.028;2023-04-07T00:31:22;93386.03;;;3.66;83.98
11345;BME280;5727;42.600;23.028;2023-04-07T00:33:49;93387.69;;;3.62;83.88
11345;BME280;5727;42.600;23.028;2023-04-07T00:36:17;93386.41;;;3.59;83.53
11345;BME280;5727;42.600;23.028;2023-04-07T00:38:44;93379.34;;;3.51;79.96
11345;BME280;5727;42.600;23.028;2023-04-07T00:41:10;93387.00;;;3.56;81.84
11345;BME280;5727;42.600;23.028;2023-04-07T00:43:37;93382.78;;;3.60;80.79
11345;BME280;5727;42.600;23.028;2023-04-07T00:46:04;93394.09;;;3.64;82.24
11345;BME280;5727;42.600;23.028;2023-04-07T00:48:31;93388.34;;;3.67;82.49
11345;BME280;5727;42.600;23.028;2023-04-07T00:51:01;93383.34;;;3.57;80.77
11345;BME280;5727;42.600;23.028;2023-04-07T00:53:29;93394.97;;;3.60;79.17
11345;BME280;5727;42.600;23.028;2023-04-07T00:55:56;93393.63;;;3.49;78.53
11345;BME280;5727;42.600;23.028;2023-04-07T00:58:23;93391.63;;;3.32;79.39
11345;BME280;5727;42.600;23.028;2023-04-07T01:00:55;93396.31;;;3.44;79.58
11345;BME280;5727;42.600;23.028;2023-04-07T01:03:29;93387.13;;;3.51;79.19
11345;BME280;5727;42.600;23.028;2023-04-07T01:05:59;93386.44;;;3.46;78.97
11345;BME280;5727;42.600;23.028;2023-04-07T01:08:32;93385.56;;;3.50;79.82
11345;BME280;5727;42.600;23.028;2023-04-07T01:11:03;93379.34;;;3.51;79.81
11345;BME280;5727;42.600;23.028;2023-04-07T01:13:35;93380.50;;;3.45;78.77
11345;BME280;5727;42.600;23.028;2023-04-07T01:16:08;93380.69;;;3.35;78.00
11345;BME280;5727;42.600;23.028;2023-04-07T01:18:37;93384.25;;;3.39;78.05
11345;BME280;5727;42.600;23.028;2023-04-07T01:21:08;93378.59;;;3.37;79.33
11345;BME280;5727;42.600;23.028;2023-04-07T01:23:51;93377.81;;;3.37;78.60
11345;BME280;5727;42.600;23.028;2023-04-07T01:26:22;93380.41;;;3.37;78.41
11345;BME280;5727;42.600;23.028;2023-04-07T01:31:53;93378.00;;;3.27;77.34
11345;BME280;5727;42.600;23.028;2023-04-07T01:34:22;93377.63;;;3.33;75.88
11345;BME280;5727;42.600;23.028;2023-04-07T01:36:53;93372.63;;;3.23;76.02
11345;BME280;5727;42.600;23.028;2023-04-07T01:39:21;93368.59;;;3.17;72.47
11345;BME280;5727;42.600;23.028;2023-04-07T01:41:49;93375.88;;;3.29;72.95
11345;BME280;5727;42.600;23.028;2023-04-07T01:44:18;93375.31;;;3.32;74.71
11345;BME280;5727;42.600;23.028;2023-04-07T01:46:45;93374.75;;;3.35;71.59
11345;BME280;5727;42.600;23.028;2023-04-07T01:49:14;93367.44;;;3.37;70.45
11345;BME280;5727;42.600;23.028;2023-04-07T01:51:41;93371.97;;;3.45;69.51
11345;BME280;5727;42.600;23.028;2023-04-07T01:54:08;93368.59;;;3.44;67.60
11345;BME280;5727;42.600;23.028;2023-04-07T01:56:35;93362.56;;;3.49;67.89
11345;BME280;5727;42.600;23.028;2023-04-07T01:59:01;93360.63;;;3.54;67.51
11345;BME280;5727;42.600;23.028;2023-04-07T02:01:29;93367.53;;;3.59;67.50
11345;BME280;5727;42.600;23.028;2023-04-07T02:04:01;93358.91;;;3.50;67.01
11345;BME280;5727;42.600;23.028;2023-04-07T02:06:35;93352.88;;;3.54;66.61
11345;BME280;5727;42.600;23.028;2023-04-07T02:09:06;93362.25;;;3.64;66.75
11345;BME280;5727;42.600;23.028;2023-04-07T02:11:36;93362.91;;;3.69;67.16
11345;BME280;5727;42.600;23.028;2023-04-07T02:14:04;93356.88;;;3.74;66.66
11345;BME280;5727;42.600;23.028;2023-04-07T02:16:33;93353.03;;;3.71;65.62
11345;BME280;5727;42.600;23.028;2023-04-07T02:19:01;93353.81;;;3.72;65.84
11345;BME280;5727;42.600;23.028;2023-04-07T02:21:29;93356.88;;;3.74;65.45
11345;BME280;5727;42.600;23.028;2023-04-07T02:24:01;93353.03;;;3.71;65.44
11345;BME280;5727;42.600;23.028;2023-04-07T02:26:32;93347.47;;;3.64;65.50
11345;BME280;5727;42.600;23.028;2023-04-07T02:28:59;93351.06;;;3.55;65.33
11345;BME280;5727;42.600;23.028;2023-04-07T02:31:26;93358.91;;;3.36;64.70
11345;BME280;5727;42.600;23.028;2023-04-07T02:33:52;93356.81;;;3.25;66.27
11345;BME280;5727;42.600;23.028;2023-04-07T02:36:19;93353.72;;;3.36;66.36
11345;BME280;5727;42.600;23.028;2023-04-07T02:38:46;93363.03;;;3.37;65.87
11345;BME280;5727;42.600;23.028;2023-04-07T02:41:14;93357.28;;;3.40;66.77
11345;BME280;5727;42.600;23.028;2023-04-07T02:43:41;93352.88;;;3.27;66.47
11345;BME280;5727;42.600;23.028;2023-04-07T02:46:07;93361.31;;;3.33;67.39
11345;BME280;5727;42.600;23.028;2023-04-07T02:48:34;93362.09;;;3.33;66.52
11345;BME280;5727;42.600;23.028;2023-04-07T02:51:01;93361.72;;;3.26;66.77
11345;BME280;5727;42.600;23.028;2023-04-07T02:53:27;93359.78;;;3.32;66.57
11345;BME280;5727;42.600;23.028;2023-04-07T02:55:54;93360.56;;;3.32;66.11
11345;BME280;5727;42.600;23.028;2023-04-07T02:58:22;93374.66;;;3.26;64.76
11345;BME280;5727;42.600;23.028;2023-04-07T03:00:49;93370.81;;;3.24;64.66
11345;BME280;5727;42.600;23.028;2023-04-07T03:03:16;93374.94;;;3.25;65.47
11345;BME280;5727;42.600;23.028;2023-04-07T03:05:42;93368.78;;;3.34;65.88
11345;BME280;5727;42.600;23.028;2023-04-07T03:08:09;93369.97;;;3.42;64.42
11345;BME280;5727;42.600;23.028;2023-04-07T03:10:36;93367.28;;;3.33;64.55
11345;BME280;5727;42.600;23.028;2023-04-07T03:13:03;93367.63;;;3.40;64.63
11345;BME280;5727;42.600;23.028;2023-04-07T03:15:31;93366.69;;;3.36;64.01
11345;BME280;5727;42.600;23.028;2023-04-07T03:17:58;93367.63;;;3.40;64.97
11345;BME280;5727;42.600;23.028;2023-04-07T03:20:25;93372.06;;;3.40;64.52
11345;BME280;5727;42.600;23.028;2023-04-07T03:22:51;93375.59;;;3.44;65.22
11345;BME280;5727;42.600;23.028;2023-04-07T03:25:18;93377.03;;;3.50;64.42
11345;BME280;5727;42.600;23.028;2023-04-07T03:27:45;93374.72;;;3.48;64.42
11345;BME280;5727;42.600;23.028;2023-04-07T03:30:12;93369.75;;;3.38;63.95
11345;BME280;5727;42.600;23.028;2023-04-07T03:32:41;93381.28;;;3.32;63.48
11345;BME280;5727;42.600;23.028;2023-04-07T03:35:08;93373.88;;;3.26;64.20
11345;BME280;5727;42.600;23.028;2023-04-07T03:37:35;93375.63;;;3.17;64.75
11345;BME280;5727;42.600;23.028;2023-04-07T03:40:01;93374.84;;;3.16;64.43
11345;BME280;5727;42.600;23.028;2023-04-07T03:42:28;93373.69;;;3.09;64.97
11345;BME280;5727;42.600;23.028;2023-04-07T03:44:55;93376.25;;;2.95;65.58
11345;BME280;5727;42.600;23.028;2023-04-07T03:47:22;93378.75;;;3.00;65.53
11345;BME280;5727;42.600;23.028;2023-04-07T03:49:50;93375.50;;;3.08;65.83
11345;BME280;5727;42.600;23.028;2023-04-07T03:52:16;93374.81;;;2.89;67.43
11345;BME280;5727;42.600;23.028;2023-04-07T03:54:44;93382.00;;;2.92;66.62
11345;BME280;5727;42.600;23.028;2023-04-07T03:57:10;93384.81;;;2.96;66.82
11345;BME280;5727;42.600;23.028;2023-04-07T03:59:37;93384.81;;;2.96;66.49
11345;BME280;5727;42.600;23.028;2023-04-07T04:02:04;93373.28;;;3.02;66.52
11345;BME280;5727;42.600;23.028;2023-04-07T04:04:31;93383.63;;;3.02;66.72
11345;BME280;5727;42.600;23.028;2023-04-07T04:06:59;93384.34;;;3.07;66.52
11345;BME280;5727;42.600;23.028;2023-04-07T04:09:26;93386.44;;;3.05;66.96
11345;BME280;5727;42.600;23.028;2023-04-07T04:11:52;93382.22;;;3.09;67.05
11345;BME280;5727;42.600;23.028;2023-04-07T04:14:19;93386.22;;;3.15;67.24
11345;BME280;5727;42.600;23.028;2023-04-07T04:16:46;93387.13;;;3.24;67.18
11345;BME280;5727;42.600;23.028;2023-04-07T04:19:12;93387.59;;;3.26;66.39
11345;BME280;5727;42.600;23.028;2023-04-07T04:21:39;93382.31;;;3.31;67.24
11345;BME280;5727;42.600;23.028;2023-04-07T04:24:07;93387.78;;;3.30;67.94
11345;BME280;5727;42.600;23.028;2023-04-07T04:26:34;93393.75;;;3.30;67.52
11345;BME280;5727;42.600;23.028;2023-04-07T04:29:01;93386.53;;;3.27;68.27
11345;BME280;5727;42.600;23.028;2023-04-07T04:31:28;93395.25;;;3.31;67.71
11345;BME280;5727;42.600;23.028;2023-04-07T04:33:54;93390.09;;;3.31;68.49
11345;BME280;5727;42.600;23.028;2023-04-07T04:36:21;93399.97;;;3.29;69.30
11345;BME280;5727;42.600;23.028;2023-04-07T04:38:48;93398.81;;;3.35;68.74
11345;BME280;5727;42.600;23.028;2023-04-07T04:41:16;93394.59;;;3.39;68.48
11345;BME280;5727;42.600;23.028;2023-04-07T04:43:43;93395.38;;;3.40;68.03
11345;BME280;5727;42.600;23.028;2023-04-07T04:46:09;93393.06;;;3.38;68.49
11345;BME280;5727;42.600;23.028;2023-04-07T04:48:36;93397.00;;;3.36;69.25
11345;BME280;5727;42.600;23.028;2023-04-07T04:51:03;93398.69;;;3.27;66.92
11345;BME280;5727;42.600;23.028;2023-04-07T04:53:30;93394.78;;;3.29;66.59
11345;BME280;5727;42.600;23.028;2023-04-07T04:55:57;93398.16;;;3.30;65.40
11345;BME280;5727;42.600;23.028;2023-04-07T04:58:25;93398.63;;;3.32;65.95
11345;BME280;5727;42.600;23.028;2023-04-07T05:00:53;93403.16;;;3.40;65.94
11345;BME280;5727;42.600;23.028;2023-04-07T05:03:22;93407.44;;;3.44;65.57
11345;BME280;5727;42.600;23.028;2023-04-07T05:05:50;93407.34;;;3.49;64.98
11345;BME280;5727;42.600;23.028;2023-04-07T05:08:17;93406.41;;;3.45;63.99
11345;BME280;5727;42.600;23.028;2023-04-07T05:10:43;93412.31;;;3.59;64.06
11345;BME280;5727;42.600;23.028;2023-04-07T05:13:11;93411.84;;;3.71;63.43
11345;BME280;5727;42.600;23.028;2023-04-07T05:15:40;93423.16;;;3.75;62.57
11345;BME280;5727;42.600;23.028;2023-04-07T05:18:07;93416.66;;;3.64;62.79
11345;BME280;5727;42.600;23.028;2023-04-07T05:20:33;93418.75;;;3.76;62.92
11345;BME280;5727;42.600;23.028;2023-04-07T05:23:00;93421.03;;;3.91;62.35
11345;BME280;5727;42.600;23.028;2023-04-07T05:25:27;93431.88;;;3.79;62.43
11345;BME280;5727;42.600;23.028;2023-04-07T05:27:54;93437.06;;;3.79;62.28
11345;BME280;5727;42.600;23.028;2023-04-07T05:30:20;93429.78;;;3.67;62.73
11345;BME280;5727;42.600;23.028;2023-04-07T05:32:48;93431.72;;;3.62;63.94
11345;BME280;5727;42.600;23.028;2023-04-07T05:35:16;93425.19;;;3.64;63.29
11345;BME280;5727;42.600;23.028;2023-04-07T05:37:42;93421.72;;;3.83;63.04
11345;BME280;5727;42.600;23.028;2023-04-07T05:40:10;93423.63;;;3.91;62.47
11345;BME280;5727;42.600;23.028;2023-04-07T05:42:37;93426.00;;;4.01;62.14
11345;BME280;5727;42.600;23.028;2023-04-07T05:45:04;93423.91;;;4.03;61.65
11345;BME280;5727;42.600;23.028;2023-04-07T05:47:31;93419.53;;;4.12;61.13
11345;BME280;5727;42.600;23.028;2023-04-07T05:49:59;93430.88;;;4.16;60.31
11345;BME280;5727;42.600;23.028;2023-04-07T05:52:26;93426.56;;;3.98;60.87
11345;BME280;5727;42.600;23.028;2023-04-07T05:54:52;93435.78;;;4.04;60.87
11345;BME280;5727;42.600;23.028;2023-04-07T05:57:20;93425.69;;;4.16;61.13
11345;BME280;5727;42.600;23.028;2023-04-07T05:59:47;93427.47;;;4.29;60.99
11345;BME280;5727;42.600;23.028;2023-04-07T06:02:13;93437.38;;;4.27;59.91
11345;BME280;5727;42.600;23.028;2023-04-07T06:18:02;93431.75;;;4.91;57.15
11345;BME280;5727;42.600;23.028;2023-04-07T06:20:29;93428.31;;;5.04;56.64
11345;BME280;5727;42.600;23.028;2023-04-07T06:22:55;93423.19;;;5.21;56.29
11345;BME280;5727;42.600;23.028;2023-04-07T06:25:22;93432.59;;;5.39;55.29
11345;BME280;5727;42.600;23.028;2023-04-07T06:27:49;93435.06;;;5.14;55.84
11345;BME280;5727;42.600;23.028;2023-04-07T06:30:16;93433.03;;;5.02;55.76
11345;BME280;5727;42.600;23.028;2023-04-07T06:32:42;93426.19;;;4.84;55.01
11345;BME280;5727;42.600;23.028;2023-04-07T06:35:11;93439.94;;;4.85;56.05
11345;BME280;5727;42.600;23.028;2023-04-07T06:37:37;93440.84;;;4.80;56.76
11345;BME280;5727;42.600;23.028;2023-04-07T06:40:06;93441.88;;;4.79;57.01
11345;BME280;5727;42.600;23.028;2023-04-07T06:42:33;93428.56;;;4.72;57.53
11345;BME280;5727;42.600;23.028;2023-04-07T06:44:59;93440.75;;;4.94;56.04
11345;BME280;5727;42.600;23.028;2023-04-07T06:47:26;93443.63;;;5.14;56.06
11345;BME280;5727;42.600;23.028;2023-04-07T06:49:53;93440.25;;;5.14;55.80
11345;BME280;5727;42.600;23.028;2023-04-07T06:52:21;93443.31;;;5.46;54.73
11345;BME280;5727;42.600;23.028;2023-04-07T06:54:48;93427.28;;;5.14;55.11
11345;BME280;5727;42.600;23.028;2023-04-07T06:57:15;93443.00;;;5.09;55.04
11345;BME280;5727;42.600;23.028;2023-04-07T06:59:42;93441.81;;;5.15;54.37
11345;BME280;5727;42.600;23.028;2023-04-07T07:02:08;93438.91;;;5.16;55.01
11345;BME280;5727;42.600;23.028;2023-04-07T07:04:35;93447.88;;;5.10;54.75
11345;BME280;5727;42.600;23.028;2023-04-07T07:07:02;93447.56;;;5.03;55.69
11345;BME280;5727;42.600;23.028;2023-04-07T07:09:30;93448.47;;;5.38;54.83
11345;BME280;5727;42.600;23.028;2023-04-07T07:11:56;93447.38;;;5.70;54.85
11345;BME280;5727;42.600;23.028;2023-04-07T07:14:23;93449.94;;;5.61;54.22
11345;BME280;5727;42.600;23.028;2023-04-07T07:16:50;93458.53;;;5.62;53.78
11345;BME280;5727;42.600;23.028;2023-04-07T07:19:17;93447.69;;;5.68;54.88
11345;BME280;5727;42.600;23.028;2023-04-07T07:21:43;93455.03;;;5.75;54.46
11345;BME280;5727;42.600;23.028;2023-04-07T07:24:10;93456.56;;;6.06;54.19
11345;BME280;5727;42.600;23.028;2023-04-07T07:26:38;93455.53;;;6.33;52.62
11345;BME280;5727;42.600;23.028;2023-04-07T07:29:06;93457.16;;;6.12;51.90
11345;BME280;5727;42.600;23.028;2023-04-07T07:31:32;93458.28;;;6.36;52.21
11345;BME280;5727;42.600;23.028;2023-04-07T07:33:59;93464.03;;;6.08;52.46
11345;BME280;5727;42.600;23.028;2023-04-07T07:36:26;93461.81;;;6.32;51.10
11345;BME280;5727;42.600;23.028;2023-04-07T07:38:52;93455.53;;;6.67;50.12
11345;BME280;5727;42.600;23.028;2023-04-07T07:41:19;93449.84;;;7.08;49.78
11345;BME280;5727;42.600;23.028;2023-04-07T07:43:47;93446.28;;;7.29;48.85
11345;BME280;5727;42.600;23.028;2023-04-07T07:46:14;93434.41;;;7.49;47.94
11345;BME280;5727;42.600;23.028;2023-04-07T07:48:41;93441.06;;;7.67;47.17
11345;BME280;5727;42.600;23.028;2023-04-07T07:51:08;93440.22;;;7.55;47.71
11345;BME280;5727;42.600;23.028;2023-04-07T07:53:35;93459.06;;;6.97;48.64
11345;BME280;5727;42.600;23.028;2023-04-07T07:56:01;93453.22;;;6.14;51.60
11345;BME280;5727;42.600;23.028;2023-04-07T07:58:28;93453.28;;;5.92;51.30
11345;BME280;5727;42.600;23.028;2023-04-07T08:00:56;93458.81;;;5.91;52.78
11345;BME280;5727;42.600;23.028;2023-04-07T08:03:23;93467.75;;;5.76;53.88
11345;BME280;5727;42.600;23.028;2023-04-07T08:05:50;93466.31;;;5.62;53.37
11345;BME280;5727;42.600;23.028;2023-04-07T08:08:16;93456.06;;;5.65;53.93
11345;BME280;5727;42.600;23.028;2023-04-07T08:10:43;93462.03;;;5.96;52.65
11345;BME280;5727;42.600;23.028;2023-04-07T08:13:10;93456.16;;;6.47;51.94
11345;BME280;5727;42.600;23.028;2023-04-07T08:15:37;93456.75;;;6.61;51.43
11345;BME280;5727;42.600;23.028;2023-04-07T08:18:06;93461.94;;;6.18;52.11
11345;BME280;5727;42.600;23.028;2023-04-07T08:20:33;93469.88;;;6.05;51.63
11345;BME280;5727;42.600;23.028;2023-04-07T08:23:00;93464.50;;;6.10;52.36
11345;BME280;5727;42.600;23.028;2023-04-07T08:25:28;93459.03;;;6.28;51.84
11345;BME280;5727;42.600;23.028;2023-04-07T08:27:55;93461.81;;;6.66;51.17
11345;BME280;5727;42.600;23.028;2023-04-07T08:30:22;93451.84;;;6.77;51.36
11345;BME280;5727;42.600;23.028;2023-04-07T08:32:49;93462.75;;;6.70;52.06
11345;BME280;5727;42.600;23.028;2023-04-07T08:35:17;93462.91;;;6.57;52.23
11345;BME280;5727;42.600;23.028;2023-04-07T08:37:43;93461.31;;;6.21;52.41
11345;BME280;5727;42.600;23.028;2023-04-07T08:40:11;93462.22;;;6.17;53.24
11345;BME280;5727;42.600;23.028;2023-04-07T08:42:40;93457.69;;;6.48;52.01
11345;BME280;5727;42.600;23.028;2023-04-07T08:45:08;93455.09;;;6.57;51.99
11345;BME280;5727;42.600;23.028;2023-04-07T08:47:36;93455.53;;;6.84;51.17
11345;BME280;5727;42.600;23.028;2023-04-07T08:50:05;93451.28;;;7.43;51.37
11345;BME280;5727;42.600;23.028;2023-04-07T08:52:40;93449.22;;;7.66;47.60
11345;BME280;5727;42.600;23.028;2023-04-07T08:55:09;93450.81;;;7.87;47.08
11345;BME280;5727;42.600;23.028;2023-04-07T08:57:36;93445.31;;;7.43;47.51
11345;BME280;5727;42.600;23.028;2023-04-07T09:00:04;93453.31;;;7.29;47.59
11345;BME280;5727;42.600;23.028;2023-04-07T09:02:32;93446.69;;;7.40;48.10
11345;BME280;5727;42.600;23.028;2023-04-07T09:05:00;93455.22;;;7.58;48.63
11345;BME280;5727;42.600;23.028;2023-04-07T09:07:30;93449.44;;;7.43;49.15
11345;BME280;5727;42.600;23.028;2023-04-07T09:09:58;93455.38;;;6.89;49.36
11345;BME280;5727;42.600;23.028;2023-04-07T09:12:26;93465.78;;;6.81;50.03
11345;BME280;5727;42.600;23.028;2023-04-07T09:14:53;93457.50;;;7.04;50.46
11345;BME280;5727;42.600;23.028;2023-04-07T09:17:20;93453.94;;;7.26;49.60
11345;BME280;5727;42.600;23.028;2023-04-07T09:19:47;93459.84;;;7.52;47.72
11345;BME280;5727;42.600;23.028;2023-04-07T09:22:14;93456.06;;;7.32;48.84
11345;BME280;5727;42.600;23.028;2023-04-07T09:24:41;93447.34;;;7.28;49.51
11345;BME280;5727;42.600;23.028;2023-04-07T09:27:10;93456.06;;;7.32;49.50
11345;BME280;5727;42.600;23.028;2023-04-07T09:29:41;93459.13;;;7.34;49.39
11345;BME280;5727;42.600;23.028;2023-04-07T09:32:08;93451.03;;;7.19;49.71
11345;BME280;5727;42.600;23.028;2023-04-07T09:34:37;93474.78;;;7.26;50.28
11345;BME280;5727;42.600;23.028;2023-04-07T09:37:05;93461.63;;;7.05;51.23
11345;BME280;5727;42.600;23.028;2023-04-07T09:39:47;93461.59;;;7.22;50.17
11345;BME280;5727;42.600;23.028;2023-04-07T09:42:16;93442.84;;;7.46;49.10
11345;BME280;5727;42.600;23.028;2023-04-07T09:44:43;93448.81;;;7.47;48.87
11345;BME280;5727;42.600;23.028;2023-04-07T09:47:09;93453.63;;;7.27;49.19
11345;BME280;5727;42.600;23.028;2023-04-07T09:49:48;93446.22;;;7.38;50.51
11345;BME280;5727;42.600;23.028;2023-04-07T09:52:15;93464.28;;;7.52;49.09
11345;BME280;5727;42.600;23.028;2023-04-07T09:54:45;93458.56;;;7.67;48.37
11345;BME280;5727;42.600;23.028;2023-04-07T09:57:12;93467.03;;;7.55;48.19
11345;BME280;5727;42.600;23.028;2023-04-07T09:59:40;93463.03;;;7.58;48.82
11345;BME280;5727;42.600;23.028;2023-04-07T10:02:09;93464.22;;;7.69;48.03
11345;BME280;5727;42.600;23.028;2023-04-07T10:04:36;93473.28;;;7.71;48.00
11345;BME280;5727;42.600;23.028;2023-04-07T10:07:04;93463.13;;;7.78;48.36
11345;BME280;5727;42.600;23.028;2023-04-07T10:09:31;93461.78;;;8.01;47.76
11345;BME280;5727;42.600;23.028;2023-04-07T10:11:58;93456.97;;;8.12;47.54
11345;BME280;5727;42.600;23.028;2023-04-07T10:14:27;93466.34;;;8.63;47.21
11345;BME280;5727;42.600;23.028;2023-04-07T10:16:58;93467.31;;;8.58;46.24
11345;BME280;5727;42.600;23.028;2023-04-07T10:19:28;93460.13;;;8.26;47.09
11345;BME280;5727;42.600;23.028;2023-04-07T10:21:55;93459.84;;;8.19;47.08
11345;BME280;5727;42.600;23.028;2023-04-07T10:24:36;93464.53;;;8.05;47.43
11345;BME280;5727;42.600;23.028;2023-04-07T10:27:07;93470.63;;;8.09;46.82
11345;BME280;5727;42.600;23.028;2023-04-07T10:29:39;93468.88;;;8.01;46.39
11345;BME280;5727;42.600;23.028;2023-04-07T10:32:08;93464.66;;;8.38;46.50
11345;BME280;5727;42.600;23.028;2023-04-07T10:34:54;93468.94;;;8.13;45.84
11345;BME280;5727;42.600;23.028;2023-04-07T10:37:23;93463.31;;;8.02;46.60
11345;BME280;5727;42.600;23.028;2023-04-07T10:39:52;93460.91;;;8.26;46.57
11345;BME280;5727;42.600;23.028;2023-04-07T10:42:44;93466.50;;;7.79;47.49
11345;BME280;5727;42.600;23.028;2023-04-07T10:45:12;93478.34;;;7.68;47.56
11345;BME280;5727;42.600;23.028;2023-04-07T10:48:09;93468.38;;;7.70;47.08
11345;BME280;5727;42.600;23.028;2023-04-07T10:50:36;93464.03;;;8.11;46.44
11345;BME280;5727;42.600;23.028;2023-04-07T10:53:07;93465.34;;;8.76;45.51
11345;BME280;5727;42.600;23.028;2023-04-07T10:55:36;93466.38;;;8.83;44.48
11345;BME280;5727;42.600;23.028;2023-04-07T10:58:20;93466.69;;;9.14;43.70
11345;BME280;5727;42.600;23.028;2023-04-07T11:01:17;93463.59;;;9.33;43.75
11345;BME280;5727;42.600;23.028;2023-04-07T11:17:46;93464.03;;;10.40;41.14
11345;BME280;5727;42.600;23.028;2023-04-07T11:20:13;93457.72;;;9.93;41.59
11345;BME280;5727;42.600;23.028;2023-04-07T11:22:39;93466.13;;;9.42;41.09
11345;BME280;5727;42.600;23.028;2023-04-07T11:25:19;93463.06;;;9.07;42.19
11345;BME280;5727;42.600;23.028;2023-04-07T11:27:47;93458.63;;;9.07;42.27
11345;BME280;5727;42.600;23.028;2023-04-07T11:30:15;93453.78;;;8.97;42.71
11345;BME280;5727;42.600;23.028;2023-04-07T11:32:47;93456.84;;;9.32;42.27
11345;BME280;5727;42.600;23.028;2023-04-07T11:35:15;93458.50;;;9.37;41.96
11345;BME280;5727;42.600;23.028;2023-04-07T11:37:42;93451.00;;;9.47;43.35
11345;BME280;5727;42.600;23.028;2023-04-07T11:40:10;93459.00;;;9.75;43.08
11345;BME280;5727;42.600;23.028;2023-04-07T11:42:39;93456.78;;;9.53;42.97
11345;BME280;5727;42.600;23.028;2023-04-07T11:45:15;93454.47;;;9.39;43.05
11345;BME280;5727;42.600;23.028;2023-04-07T11:47:42;93451.13;;;9.63;43.25
11345;BME280;5727;42.600;23.028;2023-04-07T11:50:10;93459.22;;;9.82;43.72
11345;BME280;5727;42.600;23.028;2023-04-07T11:52:41;93450.94;;;9.80;42.80
11345;BME280;5727;42.600;23.028;2023-04-07T11:55:16;93459.66;;;9.72;42.40
11345;BME280;5727;42.600;23.028;2023-04-07T11:57:43;93457.38;;;9.26;43.06
11345;BME280;5727;42.600;23.028;2023-04-07T12:00:12;93455.38;;;9.10;43.53
11345;BME280;5727;42.600;23.028;2023-04-07T12:02:40;93460.38;;;8.83;44.31
11345;BME280;5727;42.600;23.028;2023-04-07T12:05:08;93459.72;;;8.65;45.36
11345;BME280;5727;42.600;23.028;2023-04-07T12:07:37;93449.94;;;8.62;45.61
11345;BME280;5727;42.600;23.028;2023-04-07T12:10:24;93452.84;;;8.61;45.46
11345;BME280;5727;42.600;23.028;2023-04-07T12:12:51;93459.59;;;8.41;46.28
11345;BME280;5727;42.600;23.028;2023-04-07T12:15:18;93456.59;;;8.51;46.73
11345;BME280;5727;42.600;23.028;2023-04-07T12:17:45;93454.00;;;8.51;47.77
11345;BME280;5727;42.600;23.028;2023-04-07T12:20:12;93448.50;;;8.65;47.83
11345;BME280;5727;42.600;23.028;2023-04-07T12:22:41;93446.06;;;8.68;48.15
11345;BME280;5727;42.600;23.028;2023-04-07T12:25:08;93448.56;;;8.97;47.35
11345;BME280;5727;42.600;23.028;2023-04-07T12:27:34;93452.72;;;8.98;46.63
11345;BME280;5727;42.600;23.028;2023-04-07T12:30:01;93459.13;;;9.34;46.21
11345;BME280;5727;42.600;23.028;2023-04-07T12:32:28;93459.47;;;9.89;44.87
11345;BME280;5727;42.600;23.028;2023-04-07T12:34:57;93466.91;;;10.11;43.05
11345;BME280;5727;42.600;23.028;2023-04-07T12:37:23;93457.50;;;10.22;42.73
11345;BME280;5727;42.600;23.028;2023-04-07T12:39:51;93464.72;;;10.13;43.43
11345;BME280;5727;42.600;23.028;2023-04-07T12:42:18;93449.31;;;9.99;45.12
11345;BME280;5727;42.600;23.028;2023-04-07T12:44:45;93458.47;;;9.93;43.78
11345;BME280;5727;42.600;23.028;2023-04-07T12:47:11;93460.53;;;9.88;44.37
11345;BME280;5727;42.600;23.028;2023-04-07T12:49:38;93463.53;;;9.54;45.40
11345;BME280;5727;42.600;23.028;2023-04-07T12:52:05;93457.25;;;9.67;46.03
11345;BME280;5727;42.600;23.028;2023-04-07T12:54:32;93458.81;;;10.28;45.29
11345;BME280;5727;42.600;23.028;2023-04-07T12:57:01;93461.19;;;10.57;43.33
11345;BME280;5727;42.600;23.028;2023-04-07T12:59:27;93459.00;;;10.47;44.33
11345;BME280;5727;42.600;23.028;2023-04-07T13:01:55;93461.59;;;10.71;43.37
11345;BME280;5727;42.600;23.028;2023-04-07T13:04:22;93467.03;;;10.66;43.74
11345;BME280;5727;42.600;23.028;2023-04-07T13:06:51;93470.78;;;10.65;43.94
11345;BME280;5727;42.600;23.028;2023-04-07T13:09:18;93468.22;;;11.08;43.86
11345;BME280;5727;42.600;23.028;2023-04-07T13:11:44;93465.59;;;10.17;44.10
11345;BME280;5727;42.600;23.028;2023-04-07T13:14:12;93470.31;;;9.67;45.88
11345;BME280;5727;42.600;23.028;2023-04-07T13:16:39;93469.88;;;9.65;46.70
11345;BME280;5727;42.600;23.028;2023-04-07T13:19:06;93473.03;;;9.70;47.46
11345;BME280;5727;42.600;23.028;2023-04-07T13:21:33;93464.59;;;9.85;46.77
11345;BME280;5727;42.600;23.028;2023-04-07T13:24:00;93467.66;;;10.11;45.93
11345;BME280;5727;42.600;23.028;2023-04-07T13:26:27;93472.69;;;10.29;46.53
11345;BME280;5727;42.600;23.028;2023-04-07T13:28:54;93471.69;;;10.33;44.42
11345;BME280;5727;42.600;23.028;2023-04-07T13:31:22;93471.69;;;9.97;45.61
11345;BME280;5727;42.600;23.028;2023-04-07T13:33:48;93479.25;;;9.78;46.41
11345;BME280;5727;42.600;23.028;2023-04-07T13:36:15;93483.19;;;9.84;46.59
11345;BME280;5727;42.600;23.028;2023-04-07T13:38:42;93481.63;;;9.47;48.57
11345;BME280;5727;42.600;23.028;2023-04-07T13:41:09;93489.88;;;9.37;48.82
11345;BME280;5727;42.600;23.028;2023-04-07T13:43:36;93497.25;;;9.35;49.70
11345;BME280;5727;42.600;23.028;2023-04-07T13:46:02;93492.47;;;9.04;50.44